Observations for MIDDLE WALLOP, United Kingdom (EGVP)

EGVP 211650Z AUTO 20007KT 4500 // BKN002/// BKN012/// 08/08 Q1007   
EGVP 211550Z AUTO 18005KT 2600 // OVC001/// 07/07 Q1008 
EGVP 211450Z AUTO 17007KT 5000 // OVC002/// 07/06 Q1008 
EGVP 211350Z AUTO 16006KT 2500 // OVC003/// 06/06 Q1009 
EGVP 211250Z AUTO 14006KT 4500 // OVC003/// 05/05 Q1010 
EGVP 211150Z AUTO 15007KT 3400 // OVC003/// 04/04 Q1011 
EGVP 211050Z AUTO 14010KT 4200 // OVC003/// 03/03 Q1012 
EGVP 210950Z AUTO 13008KT 3300 // OVC003/// 03/02 Q1013 
EGVP 210850Z AUTO 12007KT 2700 // SCT004/// BKN042/// 02/01 Q1014   
EGVP 210750Z AUTO 13003KT 3800 // BKN024/// SCT050/// 02/01 Q1014   
EGVP 210650Z AUTO 10004KT 6000 // OVC042/// 02/01 Q1014 
EGVP 210550Z AUTO 10004KT 7000 // BKN050/// 02/01 Q1014 
EGVP 210450Z AUTO 00000KT 7000 // SCT006/// BKN027/// 02/01 Q1015   
EGVP 210350Z AUTO 21001KT 9999 // BKN006/// BKN070/// 02/01 Q1014   
EGVP 210250Z AUTO 36003KT 9999 // OVC006/// 02/01 Q1014 
EGVP 210150Z AUTO 35003KT 9999 // OVC009/// 02/01 Q1013 
EGVP 210050Z AUTO 33004KT 9999 // OVC009/// 03/01 Q1013 
EGVP 202350Z AUTO 33005KT 9999 // OVC006/// 03/01 Q1012 
EGVP 202250Z AUTO 34004KT 9999 // OVC006/// 03/02 Q1010 
EGVP 202150Z AUTO 33004KT 9999 // OVC005/// 03/02 Q1009 
EGVP 202050Z AUTO 01007KT 5000 // OVC004/// 03/02 Q1008 
EGVP 201950Z AUTO 02007KT 9000 // SCT006/// BKN020/// 04/03 Q1006   
EGVP 201850Z AUTO 36007KT 9000 // BKN004/// 04/03 Q1003 
EGVP 201750Z AUTO 02007KT 9999 // FEW003/// SCT010/// BKN024/// 05/05 Q1001